sensor_id;sensor_type;location;lat;lon;timestamp;temperature;humidity
74458;SHT31;62896;51.032;3.712;2022-12-31T00:00:29;13.5;98
74458;SHT31;62896;51.032;3.712;2022-12-31T00:03:49;13.3;99
74458;SHT31;62896;51.032;3.712;2022-12-31T00:07:09;13.3;99
74458;SHT31;62896;51.032;3.712;2022-12-31T00:10:29;13.3;99
74458;SHT31;62896;51.032;3.712;2022-12-31T00:13:49;13.1;99
74458;SHT31;62896;51.032;3.712;2022-12-31T00:17:09;13.1;99
74458;SHT31;62896;51.032;3.712;2022-12-31T00:20:29;13.1;99
74458;SHT31;62896;51.032;3.712;2022-12-31T00:23:49;13;99
74458;SHT31;62896;51.032;3.712;2022-12-31T00:27:09;13;99
74458;SHT31;62896;51.032;3.712;2022-12-31T00:30:29;13;99
74458;SHT31;62896;51.032;3.712;2022-12-31T00:33:49;12.9;100
74458;SHT31;62896;51.032;3.712;2022-12-31T00:37:09;12.9;100
74458;SHT31;62896;51.032;3.712;2022-12-31T00:40:29;12.9;100
74458;SHT31;62896;51.032;3.712;2022-12-31T00:43:49;12.9;99
74458;SHT31;62896;51.032;3.712;2022-12-31T00:47:09;12.9;99
74458;SHT31;62896;51.032;3.712;2022-12-31T00:50:29;12.9;99
74458;SHT31;62896;51.032;3.712;2022-12-31T00:53:49;12.6;99
74458;SHT31;62896;51.032;3.712;2022-12-31T00:57:09;12.6;99
74458;SHT31;62896;51.032;3.712;2022-12-31T01:00:29;12.6;99
74458;SHT31;62896;51.032;3.712;2022-12-31T01:03:50;11.8;99
74458;SHT31;62896;51.032;3.712;2022-12-31T01:07:09;11.8;99
74458;SHT31;62896;51.032;3.712;2022-12-31T01:10:29;11.8;99
74458;SHT31;62896;51.032;3.712;2022-12-31T01:13:50;11.7;100
74458;SHT31;62896;51.032;3.712;2022-12-31T01:17:09;11.7;100
74458;SHT31;62896;51.032;3.712;2022-12-31T01:20:29;11.7;100
74458;SHT31;62896;51.032;3.712;2022-12-31T01:23:49;11.6;100
74458;SHT31;62896;51.032;3.712;2022-12-31T01:27:09;11.6;100
74458;SHT31;62896;51.032;3.712;2022-12-31T01:30:29;11.6;100
74458;SHT31;62896;51.032;3.712;2022-12-31T01:33:49;11.6;100
74458;SHT31;62896;51.032;3.712;2022-12-31T01:37:09;11.6;100
74458;SHT31;62896;51.032;3.712;2022-12-31T01:40:29;11.6;100
74458;SHT31;62896;51.032;3.712;2022-12-31T01:43:50;11.6;100
74458;SHT31;62896;51.032;3.712;2022-12-31T01:47:11;11.6;100
74458;SHT31;62896;51.032;3.712;2022-12-31T01:50:30;11.6;100
74458;SHT31;62896;51.032;3.712;2022-12-31T01:53:49;11.6;100
74458;SHT31;62896;51.032;3.712;2022-12-31T01:57:09;11.6;100
74458;SHT31;62896;51.032;3.712;2022-12-31T02:00:30;11.6;100
74458;SHT31;62896;51.032;3.712;2022-12-31T02:03:49;11.8;100
74458;SHT31;62896;51.032;3.712;2022-12-31T02:07:09;11.8;100
74458;SHT31;62896;51.032;3.712;2022-12-31T02:10:29;11.8;100
74458;SHT31;62896;51.032;3.712;2022-12-31T02:13:49;12.1;100
74458;SHT31;62896;51.032;3.712;2022-12-31T02:17:10;12.1;100
74458;SHT31;62896;51.032;3.712;2022-12-31T02:20:33;12.1;100
74458;SHT31;62896;51.032;3.712;2022-12-31T02:23:54;12.2;100
74458;SHT31;62896;51.032;3.712;2022-12-31T02:27:10;12.2;100
74458;SHT31;62896;51.032;3.712;2022-12-31T02:30:29;12.2;100
74458;SHT31;62896;51.032;3.712;2022-12-31T02:33:50;12.2;100
74458;SHT31;62896;51.032;3.712;2022-12-31T02:37:09;12.2;100
74458;SHT31;62896;51.032;3.712;2022-12-31T02:40:30;12.2;100
74458;SHT31;62896;51.032;3.712;2022-12-31T02:43:49;12.2;100
74458;SHT31;62896;51.032;3.712;2022-12-31T02:47:12;12.2;100
74458;SHT31;62896;51.032;3.712;2022-12-31T02:50:32;12.2;100
74458;SHT31;62896;51.032;3.712;2022-12-31T02:53:53;12.3;100
74458;SHT31;62896;51.032;3.712;2022-12-31T02:57:10;12.3;100
74458;SHT31;62896;51.032;3.712;2022-12-31T03:00:29;12.3;100
74458;SHT31;62896;51.032;3.712;2022-12-31T03:03:49;12.4;100
74458;SHT31;62896;51.032;3.712;2022-12-31T03:07:10;12.4;100
74458;SHT31;62896;51.032;3.712;2022-12-31T03:10:29;12.4;100
74458;SHT31;62896;51.032;3.712;2022-12-31T03:13:49;12.9;100
74458;SHT31;62896;51.032;3.712;2022-12-31T03:17:09;12.9;100
74458;SHT31;62896;51.032;3.712;2022-12-31T03:20:30;12.9;100
74458;SHT31;62896;51.032;3.712;2022-12-31T03:23:49;13.6;100
74458;SHT31;62896;51.032;3.712;2022-12-31T03:27:09;13.6;100
74458;SHT31;62896;51.032;3.712;2022-12-31T03:30:30;13.6;100
74458;SHT31;62896;51.032;3.712;2022-12-31T03:33:49;14.1;98
74458;SHT31;62896;51.032;3.712;2022-12-31T03:37:09;14.1;98
74458;SHT31;62896;51.032;3.712;2022-12-31T03:40:30;14.1;98
74458;SHT31;62896;51.032;3.712;2022-12-31T03:43:49;14.2;97
74458;SHT31;62896;51.032;3.712;2022-12-31T03:47:09;14.2;97
74458;SHT31;62896;51.032;3.712;2022-12-31T03:50:29;14.2;97
74458;SHT31;62896;51.032;3.712;2022-12-31T03:53:49;14.2;98
74458;SHT31;62896;51.032;3.712;2022-12-31T03:57:09;14.2;98
74458;SHT31;62896;51.032;3.712;2022-12-31T04:00:29;14.2;98
74458;SHT31;62896;51.032;3.712;2022-12-31T04:03:49;14.2;97
74458;SHT31;62896;51.032;3.712;2022-12-31T04:07:09;14.2;97
74458;SHT31;62896;51.032;3.712;2022-12-31T04:10:29;14.2;97
74458;SHT31;62896;51.032;3.712;2022-12-31T04:13:49;14.3;97
74458;SHT31;62896;51.032;3.712;2022-12-31T04:17:09;14.3;97
74458;SHT31;62896;51.032;3.712;2022-12-31T04:20:29;14.3;97
74458;SHT31;62896;51.032;3.712;2022-12-31T04:23:49;14.3;98
74458;SHT31;62896;51.032;3.712;2022-12-31T04:27:09;14.3;98
74458;SHT31;62896;51.032;3.712;2022-12-31T04:30:29;14.3;98
74458;SHT31;62896;51.032;3.712;2022-12-31T04:33:49;14.3;98
74458;SHT31;62896;51.032;3.712;2022-12-31T04:37:09;14.3;98
74458;SHT31;62896;51.032;3.712;2022-12-31T04:40:29;14.3;98
74458;SHT31;62896;51.032;3.712;2022-12-31T04:43:50;14.3;98
74458;SHT31;62896;51.032;3.712;2022-12-31T04:47:09;14.3;98
74458;SHT31;62896;51.032;3.712;2022-12-31T04:50:29;14.3;98
74458;SHT31;62896;51.032;3.712;2022-12-31T04:53:49;14.4;98
74458;SHT31;62896;51.032;3.712;2022-12-31T04:57:09;14.4;98
74458;SHT31;62896;51.032;3.712;2022-12-31T05:00:29;14.4;98
74458;SHT31;62896;51.032;3.712;2022-12-31T05:03:49;14.4;98
74458;SHT31;62896;51.032;3.712;2022-12-31T05:07:09;14.4;98
74458;SHT31;62896;51.032;3.712;2022-12-31T05:10:29;14.4;98
74458;SHT31;62896;51.032;3.712;2022-12-31T05:13:49;14.5;97
74458;SHT31;62896;51.032;3.712;2022-12-31T05:17:09;14.5;97
74458;SHT31;62896;51.032;3.712;2022-12-31T05:20:29;14.5;97
74458;SHT31;62896;51.032;3.712;2022-12-31T05:23:49;14.8;95
74458;SHT31;62896;51.032;3.712;2022-12-31T05:27:09;14.8;95
74458;SHT31;62896;51.032;3.712;2022-12-31T05:30:29;14.8;95
74458;SHT31;62896;51.032;3.712;2022-12-31T05:33:49;15;93
74458;SHT31;62896;51.032;3.712;2022-12-31T05:37:09;15;93
74458;SHT31;62896;51.032;3.712;2022-12-31T05:40:29;15;93
74458;SHT31;62896;51.032;3.712;2022-12-31T05:43:49;15.1;93
74458;SHT31;62896;51.032;3.712;2022-12-31T05:47:09;15.1;93
74458;SHT31;62896;51.032;3.712;2022-12-31T05:50:29;15.1;93
74458;SHT31;62896;51.032;3.712;2022-12-31T05:53:49;15.1;93
74458;SHT31;62896;51.032;3.712;2022-12-31T05:57:09;15.1;93
74458;SHT31;62896;51.032;3.712;2022-12-31T06:00:29;15.1;93
74458;SHT31;62896;51.032;3.712;2022-12-31T06:03:49;15.2;93
74458;SHT31;62896;51.032;3.712;2022-12-31T06:07:09;15.2;93
74458;SHT31;62896;51.032;3.712;2022-12-31T06:10:29;15.2;93
74458;SHT31;62896;51.032;3.712;2022-12-31T06:13:49;15.2;93
74458;SHT31;62896;51.032;3.712;2022-12-31T06:17:09;15.2;93
74458;SHT31;62896;51.032;3.712;2022-12-31T06:20:29;15.2;93
74458;SHT31;62896;51.032;3.712;2022-12-31T06:23:49;15.2;93
74458;SHT31;62896;51.032;3.712;2022-12-31T06:27:09;15.2;93
74458;SHT31;62896;51.032;3.712;2022-12-31T06:30:29;15.2;93
74458;SHT31;62896;51.032;3.712;2022-12-31T06:33:49;15.3;92
74458;SHT31;62896;51.032;3.712;2022-12-31T06:37:09;15.3;92
74458;SHT31;62896;51.032;3.712;2022-12-31T06:40:29;15.3;92
74458;SHT31;62896;51.032;3.712;2022-12-31T06:43:49;15.4;92
74458;SHT31;62896;51.032;3.712;2022-12-31T06:47:09;15.4;92
74458;SHT31;62896;51.032;3.712;2022-12-31T06:50:29;15.4;92
74458;SHT31;62896;51.032;3.712;2022-12-31T06:53:50;15.4;91
74458;SHT31;62896;51.032;3.712;2022-12-31T06:57:09;15.4;91
74458;SHT31;62896;51.032;3.712;2022-12-31T07:00:29;15.4;91
74458;SHT31;62896;51.032;3.712;2022-12-31T07:03:51;15.3;92
74458;SHT31;62896;51.032;3.712;2022-12-31T07:07:12;15.3;92
74458;SHT31;62896;51.032;3.712;2022-12-31T07:10:33;15.3;92
74458;SHT31;62896;51.032;3.712;2022-12-31T07:13:58;15.4;91
74458;SHT31;62896;51.032;3.712;2022-12-31T07:17:12;15.4;91
74458;SHT31;62896;51.032;3.712;2022-12-31T07:20:30;15.4;91
74458;SHT31;62896;51.032;3.712;2022-12-31T07:23:49;15.3;92
74458;SHT31;62896;51.032;3.712;2022-12-31T07:27:14;15.3;92
74458;SHT31;62896;51.032;3.712;2022-12-31T07:30:31;15.3;92
74458;SHT31;62896;51.032;3.712;2022-12-31T07:33:51;15.4;91
74458;SHT31;62896;51.032;3.712;2022-12-31T07:37:11;15.4;91
74458;SHT31;62896;51.032;3.712;2022-12-31T07:40:31;15.4;91
74458;SHT31;62896;51.032;3.712;2022-12-31T07:43:52;15.5;91
74458;SHT31;62896;51.032;3.712;2022-12-31T07:47:13;15.5;91
74458;SHT31;62896;51.032;3.712;2022-12-31T07:50:30;15.5;91
74458;SHT31;62896;51.032;3.712;2022-12-31T07:53:49;15.3;91
74458;SHT31;62896;51.032;3.712;2022-12-31T07:57:09;15.3;91
74458;SHT31;62896;51.032;3.712;2022-12-31T08:00:29;15.3;91
74458;SHT31;62896;51.032;3.712;2022-12-31T08:03:51;15.2;92
74458;SHT31;62896;51.032;3.712;2022-12-31T08:07:11;15.2;92
74458;SHT31;62896;51.032;3.712;2022-12-31T08:10:31;15.2;92
74458;SHT31;62896;51.032;3.712;2022-12-31T08:13:49;15;93
74458;SHT31;62896;51.032;3.712;2022-12-31T08:17:10;15;93
74458;SHT31;62896;51.032;3.712;2022-12-31T08:20:30;15;93
74458;SHT31;62896;51.032;3.712;2022-12-31T08:23:52;14.8;95
74458;SHT31;62896;51.032;3.712;2022-12-31T08:27:11;14.8;95
74458;SHT31;62896;51.032;3.712;2022-12-31T08:30:33;14.8;95
74458;SHT31;62896;51.032;3.712;2022-12-31T08:33:50;14.8;94
74458;SHT31;62896;51.032;3.712;2022-12-31T08:37:10;14.8;94
74458;SHT31;62896;51.032;3.712;2022-12-31T08:40:30;14.8;94
74458;SHT31;62896;51.032;3.712;2022-12-31T08:43:52;15;93
74458;SHT31;62896;51.032;3.712;2022-12-31T08:47:11;15;93
74458;SHT31;62896;51.032;3.712;2022-12-31T08:50:29;15;93
74458;SHT31;62896;51.032;3.712;2022-12-31T08:53:50;15.1;92
74458;SHT31;62896;51.032;3.712;2022-12-31T08:57:12;15.1;92
74458;SHT31;62896;51.032;3.712;2022-12-31T09:00:29;15.1;92
74458;SHT31;62896;51.032;3.712;2022-12-31T09:03:54;15.2;91
74458;SHT31;62896;51.032;3.712;2022-12-31T09:07:09;15.2;91
74458;SHT31;62896;51.032;3.712;2022-12-31T09:10:31;15.2;91
74458;SHT31;62896;51.032;3.712;2022-12-31T09:13:55;15.4;91
74458;SHT31;62896;51.032;3.712;2022-12-31T09:17:13;15.4;91
74458;SHT31;62896;51.032;3.712;2022-12-31T09:20:30;15.4;91
74458;SHT31;62896;51.032;3.712;2022-12-31T09:23:50;15.6;90
74458;SHT31;62896;51.032;3.712;2022-12-31T09:27:12;15.6;90
74458;SHT31;62896;51.032;3.712;2022-12-31T09:30:31;15.6;90
74458;SHT31;62896;51.032;3.712;2022-12-31T09:33:50;15.7;89
74458;SHT31;62896;51.032;3.712;2022-12-31T09:37:11;15.7;89
74458;SHT31;62896;51.032;3.712;2022-12-31T09:40:33;15.7;89
74458;SHT31;62896;51.032;3.712;2022-12-31T09:43:55;15.7;88
74458;SHT31;62896;51.032;3.712;2022-12-31T09:50:33;15.7;88
74458;SHT31;62896;51.032;3.712;2022-12-31T09:53:55;15.7;88
74458;SHT31;62896;51.032;3.712;2022-12-31T09:57:18;15.7;88
74458;SHT31;62896;51.032;3.712;2022-12-31T10:00:30;15.7;88
74458;SHT31;62896;51.032;3.712;2022-12-31T10:03:55;15.7;88
74458;SHT31;62896;51.032;3.712;2022-12-31T10:07:13;15.7;88
74458;SHT31;62896;51.032;3.712;2022-12-31T10:10:31;15.7;88
74458;SHT31;62896;51.032;3.712;2022-12-31T10:13:53;15.8;88
74458;SHT31;62896;51.032;3.712;2022-12-31T10:17:12;15.8;88
74458;SHT31;62896;51.032;3.712;2022-12-31T10:20:32;15.8;88
74458;SHT31;62896;51.032;3.712;2022-12-31T10:23:56;15.9;86
74458;SHT31;62896;51.032;3.712;2022-12-31T10:27:15;15.9;86
74458;SHT31;62896;51.032;3.712;2022-12-31T10:30:31;15.9;86
74458;SHT31;62896;51.032;3.712;2022-12-31T10:33:52;16;85
74458;SHT31;62896;51.032;3.712;2022-12-31T10:37:12;16;85
74458;SHT31;62896;51.032;3.712;2022-12-31T10:40:32;16;85
74458;SHT31;62896;51.032;3.712;2022-12-31T10:43:59;16;85
74458;SHT31;62896;51.032;3.712;2022-12-31T10:47:15;16;85
74458;SHT31;62896;51.032;3.712;2022-12-31T10:50:32;16;85
74458;SHT31;62896;51.032;3.712;2022-12-31T10:54:26;15.7;88
74458;SHT31;62896;51.032;3.712;2022-12-31T10:57:18;15.7;88
74458;SHT31;62896;51.032;3.712;2022-12-31T11:00:30;15.7;88
74458;SHT31;62896;51.032;3.712;2022-12-31T11:03:59;15.7;87
74458;SHT31;62896;51.032;3.712;2022-12-31T11:07:19;15.7;87
74458;SHT31;62896;51.032;3.712;2022-12-31T11:10:44;15.7;87
74458;SHT31;62896;51.032;3.712;2022-12-31T11:13:56;15.7;88
74458;SHT31;62896;51.032;3.712;2022-12-31T11:17:15;15.7;88
74458;SHT31;62896;51.032;3.712;2022-12-31T11:20:35;15.7;88
74458;SHT31;62896;51.032;3.712;2022-12-31T11:23:52;15.5;89
74458;SHT31;62896;51.032;3.712;2022-12-31T11:27:14;15.5;89
74458;SHT31;62896;51.032;3.712;2022-12-31T11:30:31;15.5;89
74458;SHT31;62896;51.032;3.712;2022-12-31T11:33:54;15.4;90
74458;SHT31;62896;51.032;3.712;2022-12-31T11:37:16;15.4;90
74458;SHT31;62896;51.032;3.712;2022-12-31T11:40:32;15.4;90
74458;SHT31;62896;51.032;3.712;2022-12-31T11:43:51;15.3;90
74458;SHT31;62896;51.032;3.712;2022-12-31T11:47:15;15.3;90
74458;SHT31;62896;51.032;3.712;2022-12-31T11:50:31;15.3;90
74458;SHT31;62896;51.032;3.712;2022-12-31T11:53:56;15.2;91
74458;SHT31;62896;51.032;3.712;2022-12-31T11:57:13;15.2;91
74458;SHT31;62896;51.032;3.712;2022-12-31T12:00:29;15.2;91
74458;SHT31;62896;51.032;3.712;2022-12-31T12:03:49;15.3;90
74458;SHT31;62896;51.032;3.712;2022-12-31T12:07:10;15.3;90
74458;SHT31;62896;51.032;3.712;2022-12-31T12:10:30;15.3;90
74458;SHT31;62896;51.032;3.712;2022-12-31T12:13:50;15.5;88
74458;SHT31;62896;51.032;3.712;2022-12-31T12:17:12;15.5;88
74458;SHT31;62896;51.032;3.712;2022-12-31T12:20:30;15.5;88
74458;SHT31;62896;51.032;3.712;2022-12-31T12:23:53;15.8;86
74458;SHT31;62896;51.032;3.712;2022-12-31T12:27:19;15.8;86
74458;SHT31;62896;51.032;3.712;2022-12-31T12:30:29;15.8;86
74458;SHT31;62896;51.032;3.712;2022-12-31T12:33:50;16;83
74458;SHT31;62896;51.032;3.712;2022-12-31T12:37:17;16;83
74458;SHT31;62896;51.032;3.712;2022-12-31T12:40:30;16;83
74458;SHT31;62896;51.032;3.712;2022-12-31T12:44:00;16.2;79
74458;SHT31;62896;51.032;3.712;2022-12-31T12:47:11;16.2;79
74458;SHT31;62896;51.032;3.712;2022-12-31T12:50:31;16.2;79
74458;SHT31;62896;51.032;3.712;2022-12-31T12:53:51;16.3;78
74458;SHT31;62896;51.032;3.712;2022-12-31T12:57:11;16.3;78
74458;SHT31;62896;51.032;3.712;2022-12-31T13:00:30;16.3;78
74458;SHT31;62896;51.032;3.712;2022-12-31T13:03:55;16.3;80
74458;SHT31;62896;51.032;3.712;2022-12-31T13:07:15;16.3;80
74458;SHT31;62896;51.032;3.712;2022-12-31T13:10:46;16.3;80
74458;SHT31;62896;51.032;3.712;2022-12-31T13:13:51;16.3;82
74458;SHT31;62896;51.032;3.712;2022-12-31T13:17:15;16.3;82
74458;SHT31;62896;51.032;3.712;2022-12-31T13:20:31;16.3;82
74458;SHT31;62896;51.032;3.712;2022-12-31T13:23:50;16.1;82
74458;SHT31;62896;51.032;3.712;2022-12-31T13:27:11;16.1;82
74458;SHT31;62896;51.032;3.712;2022-12-31T13:30:31;16.1;82
74458;SHT31;62896;51.032;3.712;2022-12-31T13:33:51;16.1;81
74458;SHT31;62896;51.032;3.712;2022-12-31T13:37:13;16.1;81
74458;SHT31;62896;51.032;3.712;2022-12-31T13:40:31;16.1;81
74458;SHT31;62896;51.032;3.712;2022-12-31T13:43:52;16.1;81
74458;SHT31;62896;51.032;3.712;2022-12-31T13:47:10;16.1;81
74458;SHT31;62896;51.032;3.712;2022-12-31T13:50:30;16.1;81
74458;SHT31;62896;51.032;3.712;2022-12-31T13:53:51;16.1;80
74458;SHT31;62896;51.032;3.712;2022-12-31T13:57:11;16.1;80
74458;SHT31;62896;51.032;3.712;2022-12-31T14:00:31;16.1;80
74458;SHT31;62896;51.032;3.712;2022-12-31T14:03:53;16;80
74458;SHT31;62896;51.032;3.712;2022-12-31T14:07:11;16;80
74458;SHT31;62896;51.032;3.712;2022-12-31T14:10:34;16;80
74458;SHT31;62896;51.032;3.712;2022-12-31T14:13:54;15.9;80
74458;SHT31;62896;51.032;3.712;2022-12-31T14:17:11;15.9;80
74458;SHT31;62896;51.032;3.712;2022-12-31T14:20:32;15.9;80
74458;SHT31;62896;51.032;3.712;2022-12-31T14:23:51;15.9;80
74458;SHT31;62896;51.032;3.712;2022-12-31T14:27:12;15.9;80
74458;SHT31;62896;51.032;3.712;2022-12-31T14:30:31;15.9;80
74458;SHT31;62896;51.032;3.712;2022-12-31T14:33:50;15.8;80
74458;SHT31;62896;51.032;3.712;2022-12-31T14:37:10;15.8;80
74458;SHT31;62896;51.032;3.712;2022-12-31T14:40:31;15.8;80
74458;SHT31;62896;51.032;3.712;2022-12-31T14:43:51;15.7;79
74458;SHT31;62896;51.032;3.712;2022-12-31T14:47:14;15.7;79
74458;SHT31;62896;51.032;3.712;2022-12-31T14:50:30;15.7;79
74458;SHT31;62896;51.032;3.712;2022-12-31T14:53:50;15.8;78
74458;SHT31;62896;51.032;3.712;2022-12-31T14:57:10;15.8;78
74458;SHT31;62896;51.032;3.712;2022-12-31T15:00:31;15.8;78
74458;SHT31;62896;51.032;3.712;2022-12-31T15:03:50;15.8;77
74458;SHT31;62896;51.032;3.712;2022-12-31T15:07:10;15.8;77
74458;SHT31;62896;51.032;3.712;2022-12-31T15:10:33;15.8;77
74458;SHT31;62896;51.032;3.712;2022-12-31T15:13:54;15.7;77
74458;SHT31;62896;51.032;3.712;2022-12-31T15:17:12;15.7;77
74458;SHT31;62896;51.032;3.712;2022-12-31T15:20:41;15.7;77
74458;SHT31;62896;51.032;3.712;2022-12-31T15:23:50;15.6;78
74458;SHT31;62896;51.032;3.712;2022-12-31T15:27:20;15.6;78
74458;SHT31;62896;51.032;3.712;2022-12-31T15:30:31;15.6;78
74458;SHT31;62896;51.032;3.712;2022-12-31T15:33:54;15.6;78
74458;SHT31;62896;51.032;3.712;2022-12-31T15:37:25;15.6;78
74458;SHT31;62896;51.032;3.712;2022-12-31T15:40:30;15.6;78
74458;SHT31;62896;51.032;3.712;2022-12-31T15:43:50;15.4;78
74458;SHT31;62896;51.032;3.712;2022-12-31T15:47:13;15.4;78
74458;SHT31;62896;51.032;3.712;2022-12-31T15:50:30;15.4;78
74458;SHT31;62896;51.032;3.712;2022-12-31T15:53:50;15.4;77
74458;SHT31;62896;51.032;3.712;2022-12-31T15:57:11;15.4;77
74458;SHT31;62896;51.032;3.712;2022-12-31T16:00:34;15.4;77
74458;SHT31;62896;51.032;3.712;2022-12-31T16:03:53;15.4;76
74458;SHT31;62896;51.032;3.712;2022-12-31T16:07:10;15.4;76
74458;SHT31;62896;51.032;3.712;2022-12-31T16:10:30;15.4;76
74458;SHT31;62896;51.032;3.712;2022-12-31T16:13:51;15.3;76
74458;SHT31;62896;51.032;3.712;2022-12-31T16:17:18;15.3;76
74458;SHT31;62896;51.032;3.712;2022-12-31T16:20:30;15.3;76
74458;SHT31;62896;51.032;3.712;2022-12-31T16:23:50;15.4;75
74458;SHT31;62896;51.032;3.712;2022-12-31T16:27:11;15.4;75
74458;SHT31;62896;51.032;3.712;2022-12-31T16:30:30;15.4;75
74458;SHT31;62896;51.032;3.712;2022-12-31T16:33:50;15.5;74
74458;SHT31;62896;51.032;3.712;2022-12-31T16:37:13;15.5;74
74458;SHT31;62896;51.032;3.712;2022-12-31T16:40:30;15.5;74
74458;SHT31;62896;51.032;3.712;2022-12-31T16:43:50;15.5;72
74458;SHT31;62896;51.032;3.712;2022-12-31T16:47:13;15.5;72
74458;SHT31;62896;51.032;3.712;2022-12-31T16:50:30;15.5;72
74458;SHT31;62896;51.032;3.712;2022-12-31T16:53:50;15.5;71
74458;SHT31;62896;51.032;3.712;2022-12-31T16:57:10;15.5;71
74458;SHT31;62896;51.032;3.712;2022-12-31T17:00:30;15.5;71
74458;SHT31;62896;51.032;3.712;2022-12-31T17:03:50;15.5;70
74458;SHT31;62896;51.032;3.712;2022-12-31T17:07:23;15.5;70
74458;SHT31;62896;51.032;3.712;2022-12-31T17:10:32;15.5;70
74458;SHT31;62896;51.032;3.712;2022-12-31T17:13:51;15.5;69
74458;SHT31;62896;51.032;3.712;2022-12-31T17:17:13;15.5;69
74458;SHT31;62896;51.032;3.712;2022-12-31T17:20:30;15.5;69
74458;SHT31;62896;51.032;3.712;2022-12-31T17:23:52;15.5;68
74458;SHT31;62896;51.032;3.712;2022-12-31T17:27:10;15.5;68
74458;SHT31;62896;51.032;3.712;2022-12-31T17:30:35;15.5;68
74458;SHT31;62896;51.032;3.712;2022-12-31T17:33:50;15.4;68
74458;SHT31;62896;51.032;3.712;2022-12-31T17:37:14;15.4;68
74458;SHT31;62896;51.032;3.712;2022-12-31T17:40:37;15.4;68
74458;SHT31;62896;51.032;3.712;2022-12-31T17:43:50;15.3;67
74458;SHT31;62896;51.032;3.712;2022-12-31T17:47:10;15.3;67
74458;SHT31;62896;51.032;3.712;2022-12-31T17:50:30;15.3;67
74458;SHT31;62896;51.032;3.712;2022-12-31T17:53:50;15.3;67
74458;SHT31;62896;51.032;3.712;2022-12-31T17:57:18;15.3;67
74458;SHT31;62896;51.032;3.712;2022-12-31T18:00:30;15.3;67
74458;SHT31;62896;51.032;3.712;2022-12-31T18:03:50;15.3;66
74458;SHT31;62896;51.032;3.712;2022-12-31T18:07:10;15.3;66
74458;SHT31;62896;51.032;3.712;2022-12-31T18:10:30;15.3;66
74458;SHT31;62896;51.032;3.712;2022-12-31T18:13:50;15.2;67
74458;SHT31;62896;51.032;3.712;2022-12-31T18:17:11;15.2;67
74458;SHT31;62896;51.032;3.712;2022-12-31T18:20:30;15.2;67
74458;SHT31;62896;51.032;3.712;2022-12-31T18:23:50;15.2;66
74458;SHT31;62896;51.032;3.712;2022-12-31T18:27:13;15.2;66
74458;SHT31;62896;51.032;3.712;2022-12-31T18:30:30;15.2;66
74458;SHT31;62896;51.032;3.712;2022-12-31T18:33:51;15.3;66
74458;SHT31;62896;51.032;3.712;2022-12-31T18:37:10;15.3;66
74458;SHT31;62896;51.032;3.712;2022-12-31T18:40:30;15.3;66
74458;SHT31;62896;51.032;3.712;2022-12-31T18:43:50;15.3;65
74458;SHT31;62896;51.032;3.712;2022-12-31T18:47:10;15.3;65
74458;SHT31;62896;51.032;3.712;2022-12-31T18:50:30;15.3;65
74458;SHT31;62896;51.032;3.712;2022-12-31T18:53:50;15.4;64
74458;SHT31;62896;51.032;3.712;2022-12-31T18:57:10;15.4;64
74458;SHT31;62896;51.032;3.712;2022-12-31T19:00:30;15.4;64
74458;SHT31;62896;51.032;3.712;2022-12-31T19:03:50;15.2;65
74458;SHT31;62896;51.032;3.712;2022-12-31T19:07:10;15.2;65
74458;SHT31;62896;51.032;3.712;2022-12-31T19:10:30;15.2;65
74458;SHT31;62896;51.032;3.712;2022-12-31T19:13:50;15.2;65
74458;SHT31;62896;51.032;3.712;2022-12-31T19:17:10;15.2;65
74458;SHT31;62896;51.032;3.712;2022-12-31T19:20:30;15.2;65
74458;SHT31;62896;51.032;3.712;2022-12-31T19:23:50;15.2;65
74458;SHT31;62896;51.032;3.712;2022-12-31T19:27:13;15.2;65
74458;SHT31;62896;51.032;3.712;2022-12-31T19:30:30;15.2;65
74458;SHT31;62896;51.032;3.712;2022-12-31T19:33:50;15.4;64
74458;SHT31;62896;51.032;3.712;2022-12-31T19:37:10;15.4;64
74458;SHT31;62896;51.032;3.712;2022-12-31T19:40:30;15.4;64
74458;SHT31;62896;51.032;3.712;2022-12-31T19:43:50;15.3;64
74458;SHT31;62896;51.032;3.712;2022-12-31T19:47:10;15.3;64
74458;SHT31;62896;51.032;3.712;2022-12-31T19:50:30;15.3;64
74458;SHT31;62896;51.032;3.712;2022-12-31T19:53:50;15.1;65
74458;SHT31;62896;51.032;3.712;2022-12-31T19:57:10;15.1;65
74458;SHT31;62896;51.032;3.712;2022-12-31T20:00:30;15.1;65
74458;SHT31;62896;51.032;3.712;2022-12-31T20:03:50;15.1;65
74458;SHT31;62896;51.032;3.712;2022-12-31T20:07:10;15.1;65
74458;SHT31;62896;51.032;3.712;2022-12-31T20:10:30;15.1;65
74458;SHT31;62896;51.032;3.712;2022-12-31T20:13:50;15.1;65
74458;SHT31;62896;51.032;3.712;2022-12-31T20:17:10;15.1;65
74458;SHT31;62896;51.032;3.712;2022-12-31T20:20:30;15.1;65
74458;SHT31;62896;51.032;3.712;2022-12-31T20:23:51;15.1;65
74458;SHT31;62896;51.032;3.712;2022-12-31T20:27:10;15.1;65
74458;SHT31;62896;51.032;3.712;2022-12-31T20:30:30;15.1;65
74458;SHT31;62896;51.032;3.712;2022-12-31T20:33:50;15;65
74458;SHT31;62896;51.032;3.712;2022-12-31T20:37:10;15;65
74458;SHT31;62896;51.032;3.712;2022-12-31T20:40:31;15;65
74458;SHT31;62896;51.032;3.712;2022-12-31T20:43:50;15.1;65
74458;SHT31;62896;51.032;3.712;2022-12-31T20:47:10;15.1;65
74458;SHT31;62896;51.032;3.712;2022-12-31T20:50:30;15.1;65
74458;SHT31;62896;51.032;3.712;2022-12-31T20:53:51;15.1;64
74458;SHT31;62896;51.032;3.712;2022-12-31T20:57:10;15.1;64
74458;SHT31;62896;51.032;3.712;2022-12-31T21:00:30;15.1;64
74458;SHT31;62896;51.032;3.712;2022-12-31T21:03:50;15.1;64
74458;SHT31;62896;51.032;3.712;2022-12-31T21:07:10;15.1;64
74458;SHT31;62896;51.032;3.712;2022-12-31T21:10:30;15.1;64
74458;SHT31;62896;51.032;3.712;2022-12-31T21:13:50;15.2;64
74458;SHT31;62896;51.032;3.712;2022-12-31T21:17:10;15.2;64
74458;SHT31;62896;51.032;3.712;2022-12-31T21:20:30;15.2;64
74458;SHT31;62896;51.032;3.712;2022-12-31T21:23:50;15.2;63
74458;SHT31;62896;51.032;3.712;2022-12-31T21:27:10;15.2;63
74458;SHT31;62896;51.032;3.712;2022-12-31T21:30:30;15.2;63
74458;SHT31;62896;51.032;3.712;2022-12-31T21:33:50;15.3;63
74458;SHT31;62896;51.032;3.712;2022-12-31T21:37:10;15.3;63
74458;SHT31;62896;51.032;3.712;2022-12-31T21:40:30;15.3;63
74458;SHT31;62896;51.032;3.712;2022-12-31T21:43:50;15.4;62
74458;SHT31;62896;51.032;3.712;2022-12-31T21:47:10;15.4;62
74458;SHT31;62896;51.032;3.712;2022-12-31T21:50:30;15.4;62
74458;SHT31;62896;51.032;3.712;2022-12-31T21:53:50;15.4;62
74458;SHT31;62896;51.032;3.712;2022-12-31T21:57:10;15.4;62
74458;SHT31;62896;51.032;3.712;2022-12-31T22:00:30;15.4;62
74458;SHT31;62896;51.032;3.712;2022-12-31T22:03:50;15.5;62
74458;SHT31;62896;51.032;3.712;2022-12-31T22:07:10;15.5;62
74458;SHT31;62896;51.032;3.712;2022-12-31T22:10:31;15.5;62
74458;SHT31;62896;51.032;3.712;2022-12-31T22:13:50;15.4;62
74458;SHT31;62896;51.032;3.712;2022-12-31T22:17:10;15.4;62
74458;SHT31;62896;51.032;3.712;2022-12-31T22:20:30;15.4;62
74458;SHT31;62896;51.032;3.712;2022-12-31T22:23:50;15.3;62
74458;SHT31;62896;51.032;3.712;2022-12-31T22:27:10;15.3;62
74458;SHT31;62896;51.032;3.712;2022-12-31T22:30:30;15.3;62